Impacts TAF Board
For situational awareness. Not to be used for flight planning purposes.
IDs:

KLVS - Las Vegas Muni, NM, US

Issued at 1732 UTC 01 Feb 2023
Updated at 2136 UTC 01 Feb 2023
Potential Impact None Slight Moderate High
Time2053Z 01/22Z 01/23Z 02/00Z 02/01Z 02/02Z 02/03Z 02/04Z 02/05Z 02/06Z 02/07Z 02/08Z 02/09Z 02/10Z>>
Type OBS PRVL PRVL PRVL PRVL PRVL PRVL PRVL PRVL PRVL PRVL PRVL PRVL PRVL
VIS 10 >6 >6 >6 >6 >6 >6 >6 >6 >6 >6 >6 >6 >6
CIG -- -- -- -- -- -- -- -- -- -- -- -- -- --
Cover CLR SCT SCT SCT SCT SCT SCT SCT SCT FEW FEW FEW FEW FEW
FltCat VFR VFR VFR VFR VFR VFR VFR VFR VFR VFR VFR VFR VFR VFR
WX -- -- -- -- -- -- -- -- -- -- -- -- -- --
WDir VRB 180 180 150 150 150 150 150 150 30 30 30 30 30
WSpd 4 10 10 7 7 7 7 7 7 6 6 6 6 6
WGst -- 18 18 -- -- -- -- -- -- -- -- -- -- --
WSHgt -- -- -- -- -- -- -- -- -- -- -- -- -- --
WSDir -- -- -- -- -- -- -- -- -- -- -- -- -- --
WSSpd -- -- -- -- -- -- -- -- -- -- -- -- -- --
R02/20
XWnd VRB -6 -6 -6 -6 -6 -6 -6 -6 1 1 1 1 1
XGst -- -10 -10 -- -- -- -- -- -- -- -- -- -- --
HWnd VRB -8 -8 -3 -3 -3 -3 -3 -3 6 6 6 6 6
HGst -- -15 -15 -- -- -- -- -- -- -- -- -- -- --
R14/32
XWnd VRB -5 -5 0 0 0 0 0 0 5 5 5 5 5
XGst -- -8 -8 -- -- -- -- -- -- -- -- -- -- --
HWnd VRB 9 9 7 7 7 7 7 7 -3 -3 -3 -3 -3
HGst -- 16 16 -- -- -- -- -- -- -- -- -- -- --

NOTE: LAMP data beyond the time of the TAF data is denoted as LAMP in Type and colored magenta.

Raw TAF
KLVS 011732Z 0118/0218 07006KT P6SM SKC
  FM012000 18010G18KT P6SM SCT250
  FM020000 15007KT P6SM SCT250
  FM020600 03006KT P6SM FEW250


Raw METAR
KLVS 012053Z AUTO VRB04KT 10SM CLR 09/M11 A3002 RMK AO2 SLP145 T00941111 58021
KLVS 011953Z AUTO VRB05KT 10SM CLR 08/M12 A3005 RMK AO2 SLP154 T00831122
KLVS 011853Z AUTO 10SM CLR 08/M11 A3007 RMK AO2 SLP170 T00831106

METAR Board
Radar Display
Forecast Discussion

For situational awareness. Not to be used for flight planning purposes.